Terminal Aerodrome Forecast
Issued by NWS Norman, OK

Home | Current Version | Previous Version | Text Only | Print | Product List | Glossary On
Versions: 1 2 3 4 5 6 7 8 9 10 11 12 13 14 15 16 17 18 19 20 21 22 23 24 25
000
FTUS44 KOUN 311742
TAFSPS
TAF
KSPS 311742Z 3118/0118 04005KT P6SM BKN080
     FM010700 02008KT P6SM OVC025 PROB30 0113/0118 4SM -TSRA
      OVC020CB=

USA.gov is the U.S. government's official web portal to all federal, state and local government web resources and services.